createdAt,value
2022-09-15T00:00:35.472Z,15.67
2022-09-15T00:01:35.728Z,15.67
2022-09-15T00:02:35.689Z,15.64
2022-09-15T00:03:35.683Z,15.67
2022-09-15T00:04:35.767Z,15.66
2022-09-15T00:05:35.849Z,15.64
2022-09-15T00:06:35.926Z,15.64
2022-09-15T00:07:36.077Z,15.66
2022-09-15T00:08:36.113Z,15.64
2022-09-15T00:09:36.145Z,15.62
2022-09-15T00:10:36.223Z,15.64
2022-09-15T00:11:36.290Z,15.64
2022-09-15T00:12:36.384Z,15.66
2022-09-15T00:13:36.430Z,15.64
2022-09-15T00:14:36.529Z,15.62
2022-09-15T00:15:36.593Z,15.66
2022-09-15T00:16:36.791Z,15.64
2022-09-15T00:17:36.768Z,15.64
2022-09-15T00:18:36.865Z,15.64
2022-09-15T00:19:36.926Z,15.62
2022-09-15T00:20:37.031Z,15.60
2022-09-15T00:21:37.116Z,15.64
2022-09-15T00:22:37.216Z,15.64
2022-09-15T00:23:37.276Z,15.62
2022-09-15T00:24:37.373Z,15.60
2022-09-15T00:25:37.438Z,15.60
2022-09-15T00:26:37.518Z,15.62
2022-09-15T00:27:37.608Z,15.62
2022-09-15T00:28:37.658Z,15.60
2022-09-15T00:29:37.730Z,15.60
2022-09-15T00:30:37.869Z,15.58
2022-09-15T00:31:37.938Z,15.53
2022-09-15T00:32:38.021Z,15.58
2022-09-15T00:33:38.092Z,15.59
2022-09-15T00:34:38.190Z,15.64
2022-09-15T00:35:38.258Z,15.59
2022-09-15T00:36:38.336Z,15.59
2022-09-15T00:37:38.412Z,15.60
2022-09-15T00:38:38.507Z,15.59
2022-09-15T00:39:38.598Z,15.58
2022-09-15T00:40:38.690Z,15.58
2022-09-15T00:41:38.746Z,15.59
2022-09-15T00:42:38.869Z,15.60
2022-09-15T00:43:38.919Z,15.60
2022-09-15T00:44:39.019Z,15.60
2022-09-15T00:45:39.239Z,15.60
2022-09-15T00:46:39.196Z,15.59
2022-09-15T00:47:39.268Z,15.58
2022-09-15T00:48:39.351Z,15.59
2022-09-15T00:49:39.440Z,15.58
2022-09-15T00:50:39.523Z,15.58
2022-09-15T00:51:39.620Z,15.60
2022-09-15T00:52:39.701Z,15.56
2022-09-15T00:53:39.743Z,15.58
2022-09-15T00:54:39.856Z,15.59
2022-09-15T00:55:39.899Z,15.62
2022-09-15T00:56:40.013Z,15.62
2022-09-15T00:57:40.097Z,15.66
2022-09-15T00:58:40.169Z,15.66
2022-09-15T00:59:40.242Z,15.62
2022-09-15T01:00:40.349Z,15.60
2022-09-15T01:01:40.482Z,15.62
2022-09-15T01:02:40.598Z,15.59
2022-09-15T01:03:40.617Z,15.60
2022-09-15T01:04:40.706Z,15.60
2022-09-15T01:05:40.782Z,15.62
2022-09-15T01:06:40.884Z,15.64
2022-09-15T01:07:40.990Z,15.67
2022-09-15T01:08:41.084Z,15.67
2022-09-15T01:09:41.108Z,15.67
2022-09-15T01:10:41.182Z,15.67
2022-09-15T01:11:41.287Z,15.66
2022-09-15T01:12:41.370Z,15.66
2022-09-15T01:13:41.450Z,15.66
2022-09-15T01:14:41.534Z,15.67
2022-09-15T01:15:41.644Z,15.62
2022-09-15T01:16:41.785Z,15.66
2022-09-15T01:17:41.840Z,15.67
2022-09-15T01:18:41.880Z,15.66
2022-09-15T01:19:41.980Z,15.62
2022-09-15T01:20:42.045Z,15.60
2022-09-15T01:21:42.152Z,15.60
2022-09-15T01:22:42.251Z,15.59
2022-09-15T01:23:42.327Z,15.60
2022-09-15T01:24:42.386Z,15.60
2022-09-15T01:25:42.493Z,15.60
2022-09-15T01:26:42.571Z,15.59
2022-09-15T01:27:43.212Z,15.59
2022-09-15T01:28:43.854Z,15.60
2022-09-15T01:29:42.841Z,15.60
2022-09-15T01:30:42.931Z,15.62
2022-09-15T01:31:43.071Z,15.62
2022-09-15T01:32:43.125Z,15.59
2022-09-15T01:33:43.187Z,15.58
2022-09-15T01:34:43.262Z,15.58
2022-09-15T01:35:43.372Z,15.58
2022-09-15T01:36:43.448Z,15.59
2022-09-15T01:37:43.559Z,15.59
2022-09-15T01:38:43.604Z,15.59
2022-09-15T01:39:43.686Z,15.56
2022-09-15T01:40:43.764Z,15.56
2022-09-15T01:41:43.875Z,15.56
2022-09-15T01:42:43.967Z,15.55
2022-09-15T01:43:44.037Z,15.56
2022-09-15T01:44:44.114Z,15.55
2022-09-15T01:45:44.263Z,15.56
2022-09-15T01:46:44.284Z,15.55
2022-09-15T01:47:44.420Z,15.58
2022-09-15T01:48:44.473Z,15.56
2022-09-15T01:49:44.548Z,15.59
2022-09-15T01:50:44.634Z,15.59
2022-09-15T01:51:44.700Z,15.59
2022-09-15T01:52:46.654Z,15.60
2022-09-15T01:53:44.958Z,15.64
2022-09-15T01:54:44.928Z,15.62
2022-09-15T01:55:45.009Z,15.64
2022-09-15T01:56:45.119Z,15.62
2022-09-15T01:57:45.198Z,15.64
2022-09-15T01:58:45.290Z,15.66
2022-09-15T01:59:45.331Z,15.64
2022-09-15T02:00:45.488Z,15.67
2022-09-15T02:01:45.548Z,15.66
2022-09-15T02:02:45.704Z,15.67
2022-09-15T02:03:45.710Z,15.70
2022-09-15T02:04:45.789Z,15.71
2022-09-15T02:05:45.870Z,15.71
2022-09-15T02:06:45.948Z,15.71
2022-09-15T02:07:46.033Z,15.70
2022-09-15T02:08:46.151Z,15.67
2022-09-15T02:09:46.185Z,15.68
2022-09-15T02:10:46.291Z,15.67
2022-09-15T02:11:46.372Z,15.66
2022-09-15T02:12:46.445Z,15.66
2022-09-15T02:13:46.545Z,15.68
2022-09-15T02:14:46.620Z,15.68
2022-09-15T02:15:46.690Z,15.70
2022-09-15T02:16:46.846Z,15.70
2022-09-15T02:17:46.889Z,15.70
2022-09-15T02:18:47.025Z,15.67
2022-09-15T02:19:47.074Z,15.67
2022-09-15T02:20:47.153Z,15.64
2022-09-15T02:21:47.232Z,15.62
2022-09-15T02:22:47.336Z,15.62
2022-09-15T02:23:47.425Z,15.62
2022-09-15T02:24:47.504Z,15.59
2022-09-15T02:25:47.587Z,15.60
2022-09-15T02:26:47.667Z,15.59
2022-09-15T02:27:47.749Z,15.59
2022-09-15T02:28:47.840Z,15.62
2022-09-15T02:29:47.878Z,15.64
2022-09-15T02:30:47.952Z,15.62
2022-09-15T02:31:48.090Z,15.60
2022-09-15T02:32:48.108Z,15.62
2022-09-15T02:33:48.207Z,15.64
2022-09-15T02:34:48.287Z,15.62
2022-09-15T02:35:48.362Z,15.62
2022-09-15T02:36:48.442Z,15.59
2022-09-15T02:37:48.527Z,15.60
2022-09-15T02:38:48.615Z,15.62
2022-09-15T02:39:48.733Z,15.60
2022-09-15T02:40:48.747Z,15.60
2022-09-15T02:41:48.800Z,15.59
2022-09-15T02:42:48.884Z,15.58
2022-09-15T02:43:48.953Z,15.56
2022-09-15T02:44:49.043Z,15.56
2022-09-15T02:45:49.212Z,15.53
2022-09-15T02:46:49.241Z,15.55
2022-09-15T02:47:49.325Z,15.55
2022-09-15T02:48:49.454Z,15.53
2022-09-15T02:49:49.482Z,15.52
2022-09-15T02:50:49.559Z,15.52
2022-09-15T02:51:49.613Z,15.52
2022-09-15T02:52:49.697Z,15.51
2022-09-15T02:53:49.865Z,15.51
2022-09-15T02:54:49.853Z,15.51
2022-09-15T02:55:49.936Z,15.52
2022-09-15T02:56:50.011Z,15.52
2022-09-15T02:57:50.092Z,15.52
2022-09-15T02:58:50.197Z,15.51
2022-09-15T02:59:50.225Z,15.52
2022-09-15T03:00:50.359Z,15.53
2022-09-15T03:01:50.411Z,15.52
2022-09-15T03:02:50.459Z,15.55
2022-09-15T03:03:50.561Z,15.55
2022-09-15T03:04:50.641Z,15.55
2022-09-15T03:05:50.723Z,15.55
2022-09-15T03:06:50.807Z,15.56
2022-09-15T03:07:50.891Z,15.58
2022-09-15T03:08:51.289Z,15.56
2022-09-15T03:09:51.059Z,15.58
2022-09-15T03:10:51.128Z,15.56
2022-09-15T03:11:51.211Z,15.56
2022-09-15T03:12:51.307Z,15.56
2022-09-15T03:13:51.407Z,15.56
2022-09-15T03:14:51.486Z,15.58
2022-09-15T03:15:51.607Z,15.58
2022-09-15T03:16:51.648Z,15.56
2022-09-15T03:17:51.734Z,15.58
2022-09-15T03:18:51.813Z,15.58
2022-09-15T03:19:51.875Z,15.58
2022-09-15T03:20:51.982Z,15.56
2022-09-15T03:21:52.062Z,15.56
2022-09-15T03:22:52.168Z,15.58
2022-09-15T03:23:52.379Z,15.58
2022-09-15T03:24:52.330Z,15.55
2022-09-15T03:25:52.415Z,15.53
2022-09-15T03:26:52.489Z,15.55
2022-09-15T03:27:52.572Z,15.55
2022-09-15T03:28:52.733Z,15.55
2022-09-15T03:29:52.736Z,15.52
2022-09-15T03:30:52.808Z,15.52
2022-09-15T03:31:52.892Z,15.53
2022-09-15T03:32:52.975Z,15.52
2022-09-15T03:33:53.077Z,15.53
2022-09-15T03:34:57.717Z,15.56
2022-09-15T03:35:53.252Z,15.56
2022-09-15T03:36:53.340Z,15.59
2022-09-15T03:37:53.412Z,15.59
2022-09-15T03:38:53.531Z,15.60
2022-09-15T03:39:53.619Z,15.62
2022-09-15T03:40:53.691Z,15.62
2022-09-15T03:41:53.774Z,15.64
2022-09-15T03:42:53.876Z,15.64
2022-09-15T03:43:53.962Z,15.67
2022-09-15T03:44:54.028Z,15.67
2022-09-15T03:45:54.193Z,15.66
2022-09-15T03:46:54.214Z,15.67
2022-09-15T03:47:54.302Z,15.64
2022-09-15T03:48:54.435Z,15.66
2022-09-15T03:49:54.478Z,15.62
2022-09-15T03:50:54.552Z,15.59
2022-09-15T03:51:54.632Z,15.62
2022-09-15T03:52:58.743Z,15.60
2022-09-15T03:53:54.814Z,15.60
2022-09-15T03:54:54.877Z,15.59
2022-09-15T03:55:54.952Z,15.59
2022-09-15T03:56:55.030Z,15.59
2022-09-15T03:57:55.118Z,15.53
2022-09-15T03:58:55.211Z,15.51
2022-09-15T03:59:55.285Z,15.49
2022-09-15T04:00:55.406Z,15.43
2022-09-15T04:01:55.543Z,15.43
2022-09-15T04:02:55.570Z,15.41
2022-09-15T04:03:55.664Z,15.38
2022-09-15T04:04:55.744Z,15.35
2022-09-15T04:05:55.795Z,15.33
2022-09-15T04:06:55.880Z,15.30
2022-09-15T04:07:55.935Z,15.30
2022-09-15T04:08:56.048Z,15.28
2022-09-15T04:09:56.104Z,15.27
2022-09-15T04:10:56.190Z,15.23
2022-09-15T04:11:56.241Z,15.18
2022-09-15T04:12:56.329Z,15.16
2022-09-15T04:13:56.434Z,15.15
2022-09-15T04:14:56.514Z,15.11
2022-09-15T04:15:56.590Z,15.09
2022-09-15T04:16:56.675Z,15.05
2022-09-15T04:17:56.723Z,15.03
2022-09-15T04:18:56.823Z,15.03
2022-09-15T04:19:56.884Z,15.01
2022-09-15T04:20:56.957Z,15.00
2022-09-15T04:21:57.037Z,14.94
2022-09-15T04:22:57.152Z,14.90
2022-09-15T04:23:57.229Z,14.90
2022-09-15T04:24:57.281Z,14.87
2022-09-15T04:25:57.367Z,14.87
2022-09-15T04:26:57.475Z,14.85
2022-09-15T04:27:57.551Z,14.83
2022-09-15T04:29:01.589Z,14.80
2022-09-15T04:29:57.724Z,14.79
2022-09-15T04:30:57.819Z,14.79
2022-09-15T04:31:57.876Z,14.80
2022-09-15T04:32:57.985Z,14.79
2022-09-15T04:33:58.092Z,14.74
2022-09-15T04:34:58.173Z,14.69
2022-09-15T04:35:58.251Z,14.67
2022-09-15T04:36:58.325Z,14.67
2022-09-15T04:37:58.412Z,14.63
2022-09-15T04:38:58.528Z,14.61
2022-09-15T04:39:58.612Z,14.63
2022-09-15T04:40:58.657Z,14.63
2022-09-15T04:41:58.738Z,14.64
2022-09-15T04:42:58.849Z,14.60
2022-09-15T04:43:58.927Z,14.59
2022-09-15T04:44:58.996Z,14.60
2022-09-15T04:45:59.076Z,14.61
2022-09-15T04:46:59.266Z,14.59
2022-09-15T04:47:59.246Z,14.57
2022-09-15T04:48:59.361Z,14.54
2022-09-15T04:49:59.387Z,14.57
2022-09-15T04:50:59.470Z,14.54
2022-09-15T04:51:59.558Z,14.56
2022-09-15T04:52:59.646Z,14.54
2022-09-15T04:53:59.727Z,14.53
2022-09-15T04:54:59.813Z,14.53
2022-09-15T04:55:59.877Z,14.46
2022-09-15T04:56:59.974Z,14.48
2022-09-15T04:58:00.051Z,14.46
2022-09-15T04:59:03.808Z,14.44
2022-09-15T05:00:00.205Z,14.44
2022-09-15T05:01:00.357Z,14.39
2022-09-15T05:02:00.467Z,14.39
2022-09-15T05:03:00.438Z,14.41
2022-09-15T05:04:00.516Z,14.39
2022-09-15T05:05:00.628Z,14.41
2022-09-15T05:06:00.691Z,14.39
2022-09-15T05:07:00.790Z,14.39
2022-09-15T05:08:00.871Z,14.42
2022-09-15T05:09:00.967Z,14.44
2022-09-15T05:10:01.014Z,14.44
2022-09-15T05:11:01.100Z,14.45
2022-09-15T05:12:01.153Z,14.45
2022-09-15T05:13:01.250Z,14.44
2022-09-15T05:14:01.349Z,14.45
2022-09-15T05:15:01.397Z,14.44
2022-09-15T05:16:01.476Z,14.42
2022-09-15T05:17:01.554Z,14.41
2022-09-15T05:18:01.606Z,14.41
2022-09-15T05:19:01.705Z,14.41
2022-09-15T05:20:01.747Z,14.39
2022-09-15T05:21:01.821Z,14.39
2022-09-15T05:22:01.905Z,14.38
2022-09-15T05:23:02.001Z,14.36
2022-09-15T05:24:02.098Z,14.36
2022-09-15T05:25:02.180Z,14.36
2022-09-15T05:26:02.253Z,14.35
2022-09-15T05:27:02.333Z,14.36
2022-09-15T05:28:02.434Z,14.34
2022-09-15T05:29:02.521Z,14.35
2022-09-15T05:30:31.844Z,14.35
2022-09-15T05:31:02.684Z,14.38
2022-09-15T05:32:02.737Z,14.39
2022-09-15T05:33:02.796Z,14.41
2022-09-15T05:34:04.544Z,14.38
2022-09-15T05:35:02.962Z,14.41
2022-09-15T05:36:03.040Z,14.41
2022-09-15T05:37:03.120Z,14.44
2022-09-15T05:38:03.209Z,14.44
2022-09-15T05:39:03.286Z,14.48
2022-09-15T05:40:08.297Z,14.48
2022-09-15T05:41:03.430Z,14.48
2022-09-15T05:42:03.500Z,14.49
2022-09-15T05:43:03.592Z,14.48
2022-09-15T05:44:03.667Z,14.49
2022-09-15T05:45:03.759Z,14.48
2022-09-15T05:46:03.880Z,14.49
2022-09-15T05:47:03.909Z,14.52
2022-09-15T05:48:03.995Z,14.52
2022-09-15T05:49:04.058Z,14.53
2022-09-15T05:50:04.158Z,14.56
2022-09-15T05:51:04.212Z,14.57
2022-09-15T05:52:04.305Z,14.60
2022-09-15T05:53:04.376Z,14.61
2022-09-15T05:54:04.469Z,14.66
2022-09-15T05:55:04.573Z,14.69
2022-09-15T05:56:04.609Z,14.72
2022-09-15T05:57:04.691Z,14.74
2022-09-15T05:58:04.771Z,14.75
2022-09-15T05:59:04.834Z,14.78
2022-09-15T06:00:05.062Z,14.80
2022-09-15T06:01:05.011Z,14.83
2022-09-15T06:02:05.150Z,14.85
2022-09-15T06:03:05.199Z,14.90
2022-09-15T06:04:05.234Z,14.91
2022-09-15T06:05:05.320Z,14.95
2022-09-15T06:06:05.379Z,14.97
2022-09-15T06:07:05.456Z,15.00
2022-09-15T06:08:05.565Z,15.04
2022-09-15T06:09:05.846Z,15.07
2022-09-15T06:10:05.743Z,15.11
2022-09-15T06:11:05.784Z,15.15
2022-09-15T06:12:05.883Z,15.19
2022-09-15T06:13:05.963Z,15.22
2022-09-15T06:14:06.054Z,15.27
2022-09-15T06:15:06.231Z,15.31
2022-09-15T06:16:06.306Z,15.37
2022-09-15T06:17:06.295Z,15.40
2022-09-15T06:18:06.369Z,15.43
2022-09-15T06:19:06.452Z,15.46
2022-09-15T06:20:06.563Z,15.49
2022-09-15T06:21:06.615Z,15.53
2022-09-15T06:22:06.693Z,15.58
2022-09-15T06:23:06.769Z,15.60
2022-09-15T06:24:06.851Z,15.66
2022-09-15T06:25:06.949Z,15.68
2022-09-15T06:26:07.002Z,15.71
2022-09-15T06:27:07.072Z,15.74
2022-09-15T06:28:07.173Z,15.74
2022-09-15T06:29:07.244Z,15.76
2022-09-15T06:30:07.357Z,15.78
2022-09-15T06:31:07.432Z,15.81
2022-09-15T06:32:07.618Z,15.81
2022-09-15T06:33:07.619Z,15.81
2022-09-15T06:34:07.667Z,15.85
2022-09-15T06:35:07.791Z,15.88
2022-09-15T06:36:07.842Z,15.91
2022-09-15T06:37:07.918Z,15.98
2022-09-15T06:38:07.999Z,15.98
2022-09-15T06:39:08.045Z,15.98
2022-09-15T06:40:08.254Z,15.98
2022-09-15T06:41:08.207Z,15.99
2022-09-15T06:42:10.308Z,16.03
2022-09-15T06:43:08.391Z,16.04
2022-09-15T06:44:08.497Z,16.06
2022-09-15T06:45:08.584Z,16.07
2022-09-15T06:46:08.678Z,16.08
2022-09-15T06:47:08.713Z,16.07
2022-09-15T06:48:24.126Z,16.06
2022-09-15T06:49:08.842Z,16.07
2022-09-15T06:50:09.039Z,16.08
2022-09-15T06:51:09.006Z,16.08
2022-09-15T06:52:09.099Z,16.08
2022-09-15T06:53:09.180Z,16.11
2022-09-15T06:54:09.266Z,16.11
2022-09-15T06:55:09.341Z,16.13
2022-09-15T06:56:09.401Z,16.11
2022-09-15T06:57:09.462Z,16.11
2022-09-15T06:58:09.559Z,16.13
2022-09-15T06:59:09.623Z,16.13
2022-09-15T07:00:09.758Z,16.11
2022-09-15T07:01:09.783Z,16.13
2022-09-15T07:02:10.023Z,16.13
2022-09-15T07:03:10.045Z,16.13
2022-09-15T07:04:10.069Z,16.13
2022-09-15T07:05:10.130Z,16.13
2022-09-15T07:06:10.188Z,16.14
2022-09-15T07:07:10.238Z,16.14
2022-09-15T07:08:10.363Z,16.18
2022-09-15T07:09:10.429Z,16.22
2022-09-15T07:10:10.551Z,16.25
2022-09-15T07:11:10.614Z,16.30
2022-09-15T07:12:10.702Z,16.33
2022-09-15T07:13:10.788Z,16.36
2022-09-15T07:14:10.870Z,16.41
2022-09-15T07:15:11.038Z,16.44
2022-09-15T07:16:11.090Z,16.48
2022-09-15T07:17:11.084Z,16.47
2022-09-15T07:18:11.171Z,16.42
2022-09-15T07:19:11.239Z,16.42
2022-09-15T07:20:11.403Z,16.42
2022-09-15T07:21:11.426Z,16.41
2022-09-15T07:22:11.501Z,16.40
2022-09-15T07:23:11.570Z,16.45
2022-09-15T07:24:11.657Z,16.47
2022-09-15T07:25:11.753Z,16.51
2022-09-15T07:26:11.792Z,16.50
2022-09-15T07:27:11.863Z,16.63
2022-09-15T07:28:11.954Z,16.84
2022-09-15T07:29:12.011Z,17.06
2022-09-15T07:30:12.131Z,17.18
2022-09-15T07:31:12.282Z,17.25
2022-09-15T07:32:12.238Z,17.36
2022-09-15T07:33:12.293Z,17.55
2022-09-15T07:34:12.376Z,17.77
2022-09-15T07:35:12.463Z,17.83
2022-09-15T07:36:12.550Z,17.76
2022-09-15T07:37:12.609Z,17.73
2022-09-15T07:38:12.695Z,17.57
2022-09-15T07:39:12.750Z,17.51
2022-09-15T07:40:12.968Z,17.47
2022-09-15T07:41:12.935Z,17.32
2022-09-15T07:42:15.393Z,17.33
2022-09-15T07:43:13.083Z,17.39
2022-09-15T07:44:13.165Z,17.35
2022-09-15T07:45:13.252Z,17.27
2022-09-15T07:46:13.379Z,17.14
2022-09-15T07:47:13.377Z,17.05
2022-09-15T07:48:13.467Z,17.00
2022-09-15T07:49:13.517Z,16.99
2022-09-15T07:50:13.642Z,17.05
2022-09-15T07:51:13.698Z,17.09
2022-09-15T07:52:13.806Z,17.20
2022-09-15T07:53:13.869Z,17.24
2022-09-15T07:54:17.195Z,17.25
2022-09-15T07:55:14.079Z,17.28
2022-09-15T07:56:14.131Z,17.35
2022-09-15T07:57:14.192Z,17.39
2022-09-15T07:58:14.281Z,17.46
2022-09-15T07:59:14.364Z,17.70
2022-09-15T08:00:14.480Z,17.76
2022-09-15T08:01:14.586Z,17.76
2022-09-15T08:02:14.707Z,17.84
2022-09-15T08:03:14.717Z,17.86
2022-09-15T08:04:14.798Z,18.02
2022-09-15T08:05:14.884Z,18.20
2022-09-15T08:06:14.976Z,18.34
2022-09-15T08:07:15.028Z,18.68
2022-09-15T08:08:15.107Z,19.12
2022-09-15T08:09:15.183Z,19.24
2022-09-15T08:10:15.287Z,19.16
2022-09-15T08:11:18.727Z,19.15
2022-09-15T08:12:15.456Z,19.13
2022-09-15T08:13:15.515Z,19.10
2022-09-15T08:14:15.606Z,19.21
2022-09-15T08:15:15.792Z,19.35
2022-09-15T08:16:15.816Z,19.32
2022-09-15T08:17:15.818Z,19.27
2022-09-15T08:18:15.912Z,19.20
2022-09-15T08:19:15.980Z,19.20
2022-09-15T08:20:16.086Z,19.09
2022-09-15T08:21:16.156Z,18.97
2022-09-15T08:22:16.255Z,18.84
2022-09-15T08:23:16.328Z,18.75
2022-09-15T08:24:16.429Z,18.71
2022-09-15T08:25:16.578Z,18.68
2022-09-15T08:26:16.577Z,18.68
2022-09-15T08:27:16.645Z,18.69
2022-09-15T08:28:16.752Z,18.71
2022-09-15T08:29:16.831Z,18.62
2022-09-15T08:30:16.930Z,18.60
2022-09-15T08:31:17.111Z,18.65
2022-09-15T08:32:17.101Z,18.66
2022-09-15T08:33:17.179Z,18.64
2022-09-15T08:34:17.287Z,18.74
2022-09-15T08:35:17.390Z,18.84
2022-09-15T08:36:17.478Z,19.05
2022-09-15T08:37:17.551Z,19.20
2022-09-15T08:38:17.663Z,19.28
2022-09-15T08:39:17.746Z,19.40
2022-09-15T08:40:18.041Z,19.57
2022-09-15T08:41:17.923Z,19.83
2022-09-15T08:42:18.027Z,19.97
2022-09-15T08:43:18.095Z,20.16
2022-09-15T08:44:18.185Z,20.25
2022-09-15T08:45:18.325Z,20.27
2022-09-15T08:46:18.385Z,20.35
2022-09-15T08:47:18.435Z,20.33
2022-09-15T08:48:18.538Z,20.23
2022-09-15T08:49:35.521Z,20.17
2022-09-15T08:50:18.745Z,20.16
2022-09-15T08:51:18.746Z,20.20
2022-09-15T08:52:18.846Z,20.27
2022-09-15T08:53:18.906Z,20.30
2022-09-15T08:54:18.997Z,20.13
2022-09-15T08:55:19.113Z,20.12
2022-09-15T08:56:19.136Z,19.97
2022-09-15T08:57:19.195Z,19.87
2022-09-15T08:58:19.297Z,19.89
2022-09-15T08:59:19.348Z,19.98
2022-09-15T09:00:19.508Z,20.08
2022-09-15T09:01:19.610Z,20.10
2022-09-15T09:02:19.682Z,20.01
2022-09-15T09:03:19.684Z,20.00
2022-09-15T09:04:19.772Z,20.05
2022-09-15T09:05:19.880Z,20.13
2022-09-15T09:06:19.967Z,20.25
2022-09-15T09:07:20.034Z,20.30
2022-09-15T09:08:20.128Z,20.31
2022-09-15T09:09:20.187Z,20.19
2022-09-15T09:10:20.300Z,20.16
2022-09-15T09:11:20.348Z,20.25
2022-09-15T09:12:20.442Z,20.17
2022-09-15T09:13:20.498Z,20.02
2022-09-15T09:14:20.596Z,19.86
2022-09-15T09:15:20.677Z,19.55
2022-09-15T09:16:20.986Z,19.35
2022-09-15T09:17:20.836Z,19.30
2022-09-15T09:18:20.937Z,19.30
2022-09-15T09:19:21.002Z,19.31
2022-09-15T09:20:21.136Z,19.38
2022-09-15T09:21:21.169Z,19.35
2022-09-15T09:22:21.262Z,19.35
2022-09-15T09:23:21.333Z,19.28
2022-09-15T09:24:21.430Z,19.24
2022-09-15T09:25:27.568Z,19.13
2022-09-15T09:26:21.615Z,19.01
2022-09-15T09:27:21.661Z,18.91
2022-09-15T09:28:21.767Z,18.78
2022-09-15T09:29:21.834Z,18.69
2022-09-15T09:30:21.976Z,18.57
2022-09-15T09:31:22.024Z,18.50
2022-09-15T09:32:22.199Z,18.41
2022-09-15T09:33:22.183Z,18.29
2022-09-15T09:34:22.256Z,18.26
2022-09-15T09:35:22.368Z,18.21
2022-09-15T09:36:22.466Z,18.20
2022-09-15T09:37:22.526Z,18.17
2022-09-15T09:38:22.630Z,18.19
2022-09-15T09:39:22.709Z,18.20
2022-09-15T09:40:22.851Z,18.20
2022-09-15T09:41:22.850Z,18.17
2022-09-15T09:42:22.917Z,18.16
2022-09-15T09:43:23.008Z,18.13
2022-09-15T09:44:23.063Z,18.13
2022-09-15T09:45:23.191Z,18.11
2022-09-15T09:46:23.279Z,18.10
2022-09-15T09:47:23.342Z,18.09
2022-09-15T09:48:23.417Z,18.07
2022-09-15T09:49:23.526Z,18.11
2022-09-15T09:50:23.655Z,18.19
2022-09-15T09:51:23.714Z,18.23
2022-09-15T09:52:23.788Z,18.34
2022-09-15T09:53:23.879Z,18.38
2022-09-15T09:54:23.936Z,18.41
2022-09-15T09:55:24.053Z,18.42
2022-09-15T09:56:24.105Z,18.46
2022-09-15T09:57:24.207Z,18.82
2022-09-15T09:58:24.261Z,19.25
2022-09-15T09:59:24.344Z,19.60
2022-09-15T10:00:24.430Z,19.62
2022-09-15T10:01:24.626Z,19.68
2022-09-15T10:02:24.568Z,19.76
2022-09-15T10:03:28.042Z,19.76
2022-09-15T10:04:24.870Z,19.68
2022-09-15T10:05:24.936Z,19.64
2022-09-15T10:06:24.916Z,19.67
2022-09-15T10:07:25.006Z,19.87
2022-09-15T10:08:25.078Z,20.27
2022-09-15T10:09:27.841Z,20.60
2022-09-15T10:10:25.242Z,20.68
2022-09-15T10:11:25.338Z,20.68
2022-09-15T10:12:25.399Z,20.63
2022-09-15T10:13:25.470Z,20.66
2022-09-15T10:14:25.590Z,20.71
2022-09-15T10:15:25.668Z,20.79
2022-09-15T10:16:25.975Z,20.83
2022-09-15T10:17:25.816Z,20.81
2022-09-15T10:18:25.904Z,20.78
2022-09-15T10:19:26.139Z,20.75
2022-09-15T10:20:26.093Z,20.71
2022-09-15T10:21:26.174Z,20.76
2022-09-15T10:22:26.232Z,20.81
2022-09-15T10:23:26.317Z,20.87
2022-09-15T10:24:26.381Z,20.94
2022-09-15T10:25:39.457Z,21.01
2022-09-15T10:26:26.556Z,20.98
2022-09-15T10:27:26.634Z,20.96
2022-09-15T10:28:26.713Z,20.97
2022-09-15T10:29:26.818Z,20.88
2022-09-15T10:30:26.958Z,20.78
2022-09-15T10:31:27.002Z,20.63
2022-09-15T10:32:27.123Z,20.53
2022-09-15T10:33:27.155Z,20.46
2022-09-15T10:34:27.213Z,20.51
2022-09-15T10:35:27.326Z,20.66
2022-09-15T10:36:27.379Z,20.75
2022-09-15T10:37:27.466Z,20.87
2022-09-15T10:38:27.522Z,20.98
2022-09-15T10:39:27.621Z,21.08
2022-09-15T10:40:27.774Z,21.08
2022-09-15T10:41:27.777Z,21.16
2022-09-15T10:42:27.835Z,21.21
2022-09-15T10:43:27.915Z,21.30
2022-09-15T10:44:27.996Z,21.28
2022-09-15T10:45:28.176Z,21.37
2022-09-15T10:46:28.176Z,21.53
2022-09-15T10:47:28.273Z,21.68
2022-09-15T10:48:28.360Z,21.74
2022-09-15T10:49:28.440Z,21.74
2022-09-15T10:50:28.520Z,21.67
2022-09-15T10:51:28.587Z,21.66
2022-09-15T10:52:28.663Z,21.64
2022-09-15T10:53:28.772Z,21.64
2022-09-15T10:54:28.834Z,21.59
2022-09-15T10:55:48.947Z,21.61
2022-09-15T10:56:29.026Z,21.46
2022-09-15T10:57:29.145Z,21.48
2022-09-15T10:58:29.174Z,21.31
2022-09-15T10:59:29.262Z,21.21
2022-09-15T11:00:29.360Z,21.05
2022-09-15T11:01:29.439Z,20.98
2022-09-15T11:02:29.570Z,21.01
2022-09-15T11:03:29.583Z,21.11
2022-09-15T11:04:29.659Z,21.15
2022-09-15T11:05:29.829Z,21.24
2022-09-15T11:06:29.839Z,21.28
2022-09-15T11:07:29.933Z,21.34
2022-09-15T11:08:30.005Z,21.36
2022-09-15T11:09:30.109Z,21.31
2022-09-15T11:10:30.214Z,21.26
2022-09-15T11:11:30.273Z,21.31
2022-09-15T11:12:30.343Z,21.37
2022-09-15T11:13:30.413Z,21.40
2022-09-15T11:14:30.497Z,21.43
2022-09-15T11:15:30.645Z,21.45
2022-09-15T11:16:30.734Z,21.34
2022-09-15T11:17:30.746Z,21.26
2022-09-15T11:18:30.834Z,21.03
2022-09-15T11:19:30.931Z,20.97
2022-09-15T11:20:30.993Z,20.82
2022-09-15T11:21:31.091Z,20.81
2022-09-15T11:22:31.129Z,20.81
2022-09-15T11:23:31.204Z,20.81
2022-09-15T11:24:31.288Z,20.91
2022-09-15T11:25:31.400Z,20.98
2022-09-15T11:26:31.446Z,21.08
2022-09-15T11:27:31.539Z,21.08
2022-09-15T11:28:31.621Z,21.09
2022-09-15T11:29:31.693Z,21.19
2022-09-15T11:30:31.802Z,21.27
2022-09-15T11:31:31.942Z,21.40
2022-09-15T11:32:31.961Z,21.45
2022-09-15T11:33:32.035Z,21.51
2022-09-15T11:34:32.133Z,21.52
2022-09-15T11:35:32.210Z,21.58
2022-09-15T11:36:32.254Z,21.63
2022-09-15T11:37:32.329Z,21.68
2022-09-15T11:38:32.416Z,21.75
2022-09-15T11:39:32.512Z,21.75
2022-09-15T11:40:32.626Z,21.67
2022-09-15T11:41:32.661Z,21.63
2022-09-15T11:42:32.745Z,21.61
2022-09-15T11:43:32.820Z,21.70
2022-09-15T11:44:32.890Z,21.74
2022-09-15T11:45:32.991Z,21.89
2022-09-15T11:46:33.095Z,22.04
2022-09-15T11:47:33.127Z,22.05
2022-09-15T11:48:33.208Z,22.02
2022-09-15T11:49:33.308Z,21.91
2022-09-15T11:50:33.395Z,21.75
2022-09-15T11:51:33.468Z,21.77
2022-09-15T11:52:33.551Z,21.90
2022-09-15T11:53:33.626Z,21.94
2022-09-15T11:54:33.706Z,21.96
2022-09-15T11:55:33.797Z,21.89
2022-09-15T11:56:33.846Z,21.83
2022-09-15T11:57:33.942Z,21.85
2022-09-15T11:58:34.028Z,21.89
2022-09-15T11:59:34.105Z,21.83
2022-09-15T12:00:34.171Z,21.85
2022-09-15T12:01:34.305Z,21.85
2022-09-15T12:02:34.392Z,21.85
2022-09-15T12:03:34.396Z,21.79
2022-09-15T12:04:34.474Z,21.64
2022-09-15T12:05:34.611Z,21.49
2022-09-15T12:06:34.635Z,21.45
2022-09-15T12:07:34.714Z,21.45
2022-09-15T12:08:34.769Z,21.37
2022-09-15T12:09:34.845Z,21.33
2022-09-15T12:10:34.904Z,21.21
2022-09-15T12:11:34.982Z,21.18
2022-09-15T12:12:35.847Z,21.16
2022-09-15T12:13:35.163Z,21.12
2022-09-15T12:14:35.239Z,21.11
2022-09-15T12:15:35.401Z,21.06
2022-09-15T12:16:35.397Z,21.08
2022-09-15T12:17:35.469Z,21.06
2022-09-15T12:18:39.385Z,21.08
2022-09-15T12:19:35.664Z,21.09
2022-09-15T12:20:35.721Z,21.00
2022-09-15T12:21:35.785Z,21.00
2022-09-15T12:22:35.866Z,21.05
2022-09-15T12:23:35.975Z,21.11
2022-09-15T12:24:36.059Z,21.13
2022-09-15T12:25:36.157Z,21.16
2022-09-15T12:26:36.218Z,21.16
2022-09-15T12:27:36.295Z,21.19
2022-09-15T12:28:36.373Z,21.26
2022-09-15T12:29:39.499Z,21.24
2022-09-15T12:30:36.526Z,21.27
2022-09-15T12:31:36.640Z,21.30
2022-09-15T12:32:36.687Z,21.31
2022-09-15T12:33:36.765Z,21.31
2022-09-15T12:34:36.825Z,21.31
2022-09-15T12:35:36.937Z,21.34
2022-09-15T12:36:36.987Z,21.42
2022-09-15T12:37:37.082Z,21.46
2022-09-15T12:38:37.143Z,21.46
2022-09-15T12:39:37.248Z,21.42
2022-09-15T12:40:37.432Z,21.37
2022-09-15T12:41:37.382Z,21.33
2022-09-15T12:42:37.434Z,21.30
2022-09-15T12:43:37.531Z,21.33
2022-09-15T12:44:37.584Z,21.30
2022-09-15T12:45:37.702Z,21.31
2022-09-15T12:46:37.792Z,21.31
2022-09-15T12:47:37.849Z,21.34
2022-09-15T12:48:37.907Z,21.36
2022-09-15T12:49:37.986Z,21.40
2022-09-15T12:50:38.058Z,21.43
2022-09-15T12:51:38.146Z,21.38
2022-09-15T12:52:38.226Z,21.45
2022-09-15T12:53:39.074Z,21.43